sensor_id;sensor_type;location;lat;lon;timestamp;temperature;humidity
23683;DHT22;24897;53.514;10.482;2023-05-18T00:02:15;8.80;99.90
23683;DHT22;24897;53.514;10.482;2023-05-18T00:04:59;8.80;99.90
23683;DHT22;24897;53.514;10.482;2023-05-18T00:07:45;8.80;99.90
23683;DHT22;24897;53.514;10.482;2023-05-18T00:10:30;8.80;99.90
23683;DHT22;24897;53.514;10.482;2023-05-18T00:13:14;8.70;99.90
23683;DHT22;24897;53.514;10.482;2023-05-18T00:15:59;8.70;99.90
23683;DHT22;24897;53.514;10.482;2023-05-18T00:18:43;8.60;99.90
23683;DHT22;24897;53.514;10.482;2023-05-18T00:21:27;8.60;99.90
23683;DHT22;24897;53.514;10.482;2023-05-18T00:24:14;8.60;99.90
23683;DHT22;24897;53.514;10.482;2023-05-18T00:26:59;8.50;99.90
23683;DHT22;24897;53.514;10.482;2023-05-18T00:29:43;8.40;99.90
23683;DHT22;24897;53.514;10.482;2023-05-18T00:32:27;8.30;99.90
23683;DHT22;24897;53.514;10.482;2023-05-18T00:35:12;8.20;99.90
23683;DHT22;24897;53.514;10.482;2023-05-18T00:37:56;8.10;99.90
23683;DHT22;24897;53.514;10.482;2023-05-18T00:40:40;8.00;99.90
23683;DHT22;24897;53.514;10.482;2023-05-18T00:43:25;7.80;99.90
23683;DHT22;24897;53.514;10.482;2023-05-18T00:46:09;7.80;99.90
23683;DHT22;24897;53.514;10.482;2023-05-18T00:48:55;7.70;99.90
23683;DHT22;24897;53.514;10.482;2023-05-18T00:51:45;7.60;99.90
23683;DHT22;24897;53.514;10.482;2023-05-18T00:54:30;7.50;99.90
23683;DHT22;24897;53.514;10.482;2023-05-18T00:57:16;7.60;99.90
23683;DHT22;24897;53.514;10.482;2023-05-18T01:00:03;7.60;99.90
23683;DHT22;24897;53.514;10.482;2023-05-18T01:02:49;7.50;99.90
23683;DHT22;24897;53.514;10.482;2023-05-18T01:05:34;7.50;99.90
23683;DHT22;24897;53.514;10.482;2023-05-18T01:08:18;7.60;99.90
23683;DHT22;24897;53.514;10.482;2023-05-18T01:17:07;7.70;99.90
23683;DHT22;24897;53.514;10.482;2023-05-18T01:26:12;7.70;99.90
23683;DHT22;24897;53.514;10.482;2023-05-18T01:29:00;7.70;99.90
23683;DHT22;24897;53.514;10.482;2023-05-18T01:31:45;7.80;99.90
23683;DHT22;24897;53.514;10.482;2023-05-18T01:34:30;7.80;99.90
23683;DHT22;24897;53.514;10.482;2023-05-18T01:37:14;7.90;99.90
23683;DHT22;24897;53.514;10.482;2023-05-18T01:39:59;7.90;99.90
23683;DHT22;24897;53.514;10.482;2023-05-18T01:42:46;7.90;99.90
23683;DHT22;24897;53.514;10.482;2023-05-18T01:45:33;8.00;99.90
23683;DHT22;24897;53.514;10.482;2023-05-18T01:48:20;8.00;99.90
23683;DHT22;24897;53.514;10.482;2023-05-18T01:51:10;8.00;99.90
23683;DHT22;24897;53.514;10.482;2023-05-18T01:54:00;8.00;99.90
23683;DHT22;24897;53.514;10.482;2023-05-18T01:56:46;8.00;99.90
23683;DHT22;24897;53.514;10.482;2023-05-18T01:59:31;8.00;99.90
23683;DHT22;24897;53.514;10.482;2023-05-18T02:02:16;8.10;99.90
23683;DHT22;24897;53.514;10.482;2023-05-18T02:05:01;8.10;99.90
23683;DHT22;24897;53.514;10.482;2023-05-18T02:07:46;8.10;99.90
23683;DHT22;24897;53.514;10.482;2023-05-18T02:10:33;8.10;99.90
23683;DHT22;24897;53.514;10.482;2023-05-18T02:13:17;8.30;99.90
23683;DHT22;24897;53.514;10.482;2023-05-18T02:16:02;8.10;99.90
23683;DHT22;24897;53.514;10.482;2023-05-18T02:18:47;8.10;99.90
23683;DHT22;24897;53.514;10.482;2023-05-18T02:21:31;8.10;99.90
23683;DHT22;24897;53.514;10.482;2023-05-18T02:24:18;8.10;99.90
23683;DHT22;24897;53.514;10.482;2023-05-18T02:27:02;8.20;99.90
23683;DHT22;24897;53.514;10.482;2023-05-18T02:29:48;8.10;99.90
23683;DHT22;24897;53.514;10.482;2023-05-18T02:32:32;8.10;99.90
23683;DHT22;24897;53.514;10.482;2023-05-18T02:35:21;8.10;99.90
23683;DHT22;24897;53.514;10.482;2023-05-18T02:38:05;8.20;99.90
23683;DHT22;24897;53.514;10.482;2023-05-18T02:40:50;8.10;99.90
23683;DHT22;24897;53.514;10.482;2023-05-18T02:43:34;8.20;99.90
23683;DHT22;24897;53.514;10.482;2023-05-18T02:46:18;8.20;99.90
23683;DHT22;24897;53.514;10.482;2023-05-18T02:49:02;8.20;99.90
23683;DHT22;24897;53.514;10.482;2023-05-18T02:51:46;8.20;99.90
23683;DHT22;24897;53.514;10.482;2023-05-18T02:54:30;8.20;99.90
23683;DHT22;24897;53.514;10.482;2023-05-18T02:57:15;8.20;99.90
23683;DHT22;24897;53.514;10.482;2023-05-18T02:59:59;8.20;99.90
23683;DHT22;24897;53.514;10.482;2023-05-18T03:02:44;8.20;99.90
23683;DHT22;24897;53.514;10.482;2023-05-18T03:05:31;8.20;99.90
23683;DHT22;24897;53.514;10.482;2023-05-18T03:08:15;8.10;99.90
23683;DHT22;24897;53.514;10.482;2023-05-18T03:11:01;8.20;99.90
23683;DHT22;24897;53.514;10.482;2023-05-18T03:13:46;8.20;99.90
23683;DHT22;24897;53.514;10.482;2023-05-18T03:16:31;8.10;99.90
23683;DHT22;24897;53.514;10.482;2023-05-18T03:19:15;8.10;99.90
23683;DHT22;24897;53.514;10.482;2023-05-18T03:21:59;8.10;99.90
23683;DHT22;24897;53.514;10.482;2023-05-18T03:24:44;8.10;99.90
23683;DHT22;24897;53.514;10.482;2023-05-18T03:27:28;8.10;99.90
23683;DHT22;24897;53.514;10.482;2023-05-18T03:30:12;8.10;99.90
23683;DHT22;24897;53.514;10.482;2023-05-18T03:32:57;8.00;99.90
23683;DHT22;24897;53.514;10.482;2023-05-18T03:35:42;8.10;99.90
23683;DHT22;24897;53.514;10.482;2023-05-18T03:38:26;8.10;99.90
23683;DHT22;24897;53.514;10.482;2023-05-18T03:41:11;8.30;99.90
23683;DHT22;24897;53.514;10.482;2023-05-18T03:43:55;8.20;99.90
23683;DHT22;24897;53.514;10.482;2023-05-18T03:46:40;8.30;99.90
23683;DHT22;24897;53.514;10.482;2023-05-18T03:49:24;8.50;99.90
23683;DHT22;24897;53.514;10.482;2023-05-18T03:52:09;8.70;99.90
23683;DHT22;24897;53.514;10.482;2023-05-18T03:54:54;8.70;99.90
23683;DHT22;24897;53.514;10.482;2023-05-18T03:57:38;8.70;99.90
23683;DHT22;24897;53.514;10.482;2023-05-18T04:00:22;8.70;99.90
23683;DHT22;24897;53.514;10.482;2023-05-18T04:03:09;8.70;99.90
23683;DHT22;24897;53.514;10.482;2023-05-18T04:05:55;8.60;99.90
23683;DHT22;24897;53.514;10.482;2023-05-18T04:08:39;8.50;99.90
23683;DHT22;24897;53.514;10.482;2023-05-18T04:11:25;8.60;99.90
23683;DHT22;24897;53.514;10.482;2023-05-18T04:14:10;8.60;99.90
23683;DHT22;24897;53.514;10.482;2023-05-18T04:16:55;8.70;99.90
23683;DHT22;24897;53.514;10.482;2023-05-18T04:19:41;8.80;99.90
23683;DHT22;24897;53.514;10.482;2023-05-18T04:22:27;8.90;99.90
23683;DHT22;24897;53.514;10.482;2023-05-18T04:25:14;8.80;99.90
23683;DHT22;24897;53.514;10.482;2023-05-18T04:27:59;8.90;99.90
23683;DHT22;24897;53.514;10.482;2023-05-18T04:30:44;8.90;99.90
23683;DHT22;24897;53.514;10.482;2023-05-18T04:33:29;8.80;99.90
23683;DHT22;24897;53.514;10.482;2023-05-18T04:36:13;8.90;99.90
23683;DHT22;24897;53.514;10.482;2023-05-18T04:38:57;9.00;99.90
23683;DHT22;24897;53.514;10.482;2023-05-18T04:41:41;9.00;99.90
23683;DHT22;24897;53.514;10.482;2023-05-18T04:44:29;9.00;99.90
23683;DHT22;24897;53.514;10.482;2023-05-18T04:47:14;9.00;99.90
23683;DHT22;24897;53.514;10.482;2023-05-18T04:49:58;9.00;99.90
23683;DHT22;24897;53.514;10.482;2023-05-18T04:52:44;9.00;99.90
23683;DHT22;24897;53.514;10.482;2023-05-18T04:55:32;9.00;99.90
23683;DHT22;24897;53.514;10.482;2023-05-18T04:58:16;9.10;99.90
23683;DHT22;24897;53.514;10.482;2023-05-18T05:01:00;9.20;99.90
23683;DHT22;24897;53.514;10.482;2023-05-18T05:03:47;9.20;99.90
23683;DHT22;24897;53.514;10.482;2023-05-18T05:06:32;9.30;99.90
23683;DHT22;24897;53.514;10.482;2023-05-18T05:09:18;9.40;99.90
23683;DHT22;24897;53.514;10.482;2023-05-18T05:12:02;9.60;99.90
23683;DHT22;24897;53.514;10.482;2023-05-18T05:14:47;9.60;99.90
23683;DHT22;24897;53.514;10.482;2023-05-18T05:17:31;9.70;99.90
23683;DHT22;24897;53.514;10.482;2023-05-18T05:20:15;9.80;99.90
23683;DHT22;24897;53.514;10.482;2023-05-18T05:23:00;9.90;99.90
23683;DHT22;24897;53.514;10.482;2023-05-18T05:25:44;10.00;99.90
23683;DHT22;24897;53.514;10.482;2023-05-18T05:28:29;10.10;99.90
23683;DHT22;24897;53.514;10.482;2023-05-18T05:31:13;10.20;99.90
23683;DHT22;24897;53.514;10.482;2023-05-18T05:33:57;10.10;99.90
23683;DHT22;24897;53.514;10.482;2023-05-18T05:36:42;10.10;99.90
23683;DHT22;24897;53.514;10.482;2023-05-18T05:39:26;10.20;99.90
23683;DHT22;24897;53.514;10.482;2023-05-18T05:42:10;10.40;99.90
23683;DHT22;24897;53.514;10.482;2023-05-18T05:44:54;10.40;99.90
23683;DHT22;24897;53.514;10.482;2023-05-18T05:47:38;10.30;99.90
23683;DHT22;24897;53.514;10.482;2023-05-18T05:50:23;10.30;99.90
23683;DHT22;24897;53.514;10.482;2023-05-18T05:53:07;10.10;99.90
23683;DHT22;24897;53.514;10.482;2023-05-18T05:55:51;10.10;99.90
23683;DHT22;24897;53.514;10.482;2023-05-18T05:58:35;9.90;99.90
23683;DHT22;24897;53.514;10.482;2023-05-18T06:01:19;9.70;99.90
23683;DHT22;24897;53.514;10.482;2023-05-18T06:04:03;9.50;99.90
23683;DHT22;24897;53.514;10.482;2023-05-18T06:06:49;9.50;99.90
23683;DHT22;24897;53.514;10.482;2023-05-18T06:09:33;9.50;99.90
23683;DHT22;24897;53.514;10.482;2023-05-18T06:12:17;9.60;99.90
23683;DHT22;24897;53.514;10.482;2023-05-18T06:15:01;9.70;99.90
23683;DHT22;24897;53.514;10.482;2023-05-18T06:17:45;10.00;99.90
23683;DHT22;24897;53.514;10.482;2023-05-18T06:20:30;10.20;99.90
23683;DHT22;24897;53.514;10.482;2023-05-18T06:23:14;10.60;99.90
23683;DHT22;24897;53.514;10.482;2023-05-18T06:25:58;10.60;99.90
23683;DHT22;24897;53.514;10.482;2023-05-18T06:28:42;10.40;99.90
23683;DHT22;24897;53.514;10.482;2023-05-18T06:31:27;10.20;99.90
23683;DHT22;24897;53.514;10.482;2023-05-18T06:34:11;10.00;99.90
23683;DHT22;24897;53.514;10.482;2023-05-18T06:36:55;10.10;99.90
23683;DHT22;24897;53.514;10.482;2023-05-18T06:39:39;10.20;99.90
23683;DHT22;24897;53.514;10.482;2023-05-18T06:42:24;10.50;99.90
23683;DHT22;24897;53.514;10.482;2023-05-18T06:45:09;10.40;99.90
23683;DHT22;24897;53.514;10.482;2023-05-18T06:47:53;10.30;99.90
23683;DHT22;24897;53.514;10.482;2023-05-18T06:50:37;10.30;99.90
23683;DHT22;24897;53.514;10.482;2023-05-18T06:53:21;10.30;99.90
23683;DHT22;24897;53.514;10.482;2023-05-18T06:56:06;10.50;99.90
23683;DHT22;24897;53.514;10.482;2023-05-18T06:58:50;10.80;99.90
23683;DHT22;24897;53.514;10.482;2023-05-18T07:01:34;11.20;99.90
23683;DHT22;24897;53.514;10.482;2023-05-18T07:04:19;11.40;99.90
23683;DHT22;24897;53.514;10.482;2023-05-18T07:07:04;11.30;99.90
23683;DHT22;24897;53.514;10.482;2023-05-18T07:09:48;11.20;99.90
23683;DHT22;24897;53.514;10.482;2023-05-18T07:12:32;11.50;99.90
23683;DHT22;24897;53.514;10.482;2023-05-18T07:15:16;11.30;99.90
23683;DHT22;24897;53.514;10.482;2023-05-18T07:18:00;11.10;99.90
23683;DHT22;24897;53.514;10.482;2023-05-18T07:20:45;11.00;99.90
23683;DHT22;24897;53.514;10.482;2023-05-18T07:23:29;10.90;99.90
23683;DHT22;24897;53.514;10.482;2023-05-18T07:26:13;11.00;99.90
23683;DHT22;24897;53.514;10.482;2023-05-18T07:28:57;11.10;99.90
23683;DHT22;24897;53.514;10.482;2023-05-18T07:31:41;11.40;99.90
23683;DHT22;24897;53.514;10.482;2023-05-18T07:34:26;11.70;99.90
23683;DHT22;24897;53.514;10.482;2023-05-18T07:37:28;11.80;99.90
23683;DHT22;24897;53.514;10.482;2023-05-18T07:40:12;12.50;99.90
23683;DHT22;24897;53.514;10.482;2023-05-18T07:42:56;13.00;99.90
23683;DHT22;24897;53.514;10.482;2023-05-18T07:45:40;13.00;99.90
23683;DHT22;24897;53.514;10.482;2023-05-18T07:48:24;12.80;99.90
23683;DHT22;24897;53.514;10.482;2023-05-18T07:51:08;12.70;99.90
23683;DHT22;24897;53.514;10.482;2023-05-18T07:53:52;13.00;99.90
23683;DHT22;24897;53.514;10.482;2023-05-18T07:56:36;12.70;99.90
23683;DHT22;24897;53.514;10.482;2023-05-18T07:59:21;12.30;99.90
23683;DHT22;24897;53.514;10.482;2023-05-18T08:02:05;12.30;99.90
23683;DHT22;24897;53.514;10.482;2023-05-18T08:04:50;12.30;99.90
23683;DHT22;24897;53.514;10.482;2023-05-18T08:07:34;12.50;99.90
23683;DHT22;24897;53.514;10.482;2023-05-18T08:10:19;12.50;99.90
23683;DHT22;24897;53.514;10.482;2023-05-18T08:13:03;12.80;99.90
23683;DHT22;24897;53.514;10.482;2023-05-18T08:15:47;12.40;99.90
23683;DHT22;24897;53.514;10.482;2023-05-18T08:18:31;12.70;99.90
23683;DHT22;24897;53.514;10.482;2023-05-18T08:21:16;12.70;99.90
23683;DHT22;24897;53.514;10.482;2023-05-18T08:24:02;12.70;99.90
23683;DHT22;24897;53.514;10.482;2023-05-18T08:26:46;12.90;99.90
23683;DHT22;24897;53.514;10.482;2023-05-18T08:29:30;12.90;99.90
23683;DHT22;24897;53.514;10.482;2023-05-18T08:32:14;13.40;99.90
23683;DHT22;24897;53.514;10.482;2023-05-18T08:34:59;14.00;99.90
23683;DHT22;24897;53.514;10.482;2023-05-18T08:37:43;14.70;99.90
23683;DHT22;24897;53.514;10.482;2023-05-18T08:40:35;15.20;99.90
23683;DHT22;24897;53.514;10.482;2023-05-18T08:43:21;14.90;99.90
23683;DHT22;24897;53.514;10.482;2023-05-18T08:46:22;15.30;99.90
23683;DHT22;24897;53.514;10.482;2023-05-18T08:49:09;15.40;99.90
23683;DHT22;24897;53.514;10.482;2023-05-18T08:51:55;15.40;99.90
23683;DHT22;24897;53.514;10.482;2023-05-18T08:54:40;15.00;99.90
23683;DHT22;24897;53.514;10.482;2023-05-18T08:57:26;14.70;99.90
23683;DHT22;24897;53.514;10.482;2023-05-18T09:00:12;14.80;99.90
23683;DHT22;24897;53.514;10.482;2023-05-18T09:02:58;15.40;99.90
23683;DHT22;24897;53.514;10.482;2023-05-18T09:05:42;15.90;99.90
23683;DHT22;24897;53.514;10.482;2023-05-18T09:08:29;16.20;99.90
23683;DHT22;24897;53.514;10.482;2023-05-18T09:11:14;16.30;99.90
23683;DHT22;24897;53.514;10.482;2023-05-18T09:14:01;16.90;99.90
23683;DHT22;24897;53.514;10.482;2023-05-18T09:16:45;17.10;99.90
23683;DHT22;24897;53.514;10.482;2023-05-18T09:19:29;16.70;99.90
23683;DHT22;24897;53.514;10.482;2023-05-18T09:22:13;15.90;99.90
23683;DHT22;24897;53.514;10.482;2023-05-18T09:24:58;15.40;99.90
23683;DHT22;24897;53.514;10.482;2023-05-18T09:27:43;15.10;99.90
23683;DHT22;24897;53.514;10.482;2023-05-18T09:30:27;15.50;99.90
23683;DHT22;24897;53.514;10.482;2023-05-18T09:33:18;15.90;99.90
23683;DHT22;24897;53.514;10.482;2023-05-18T09:36:13;16.50;99.90
23683;DHT22;24897;53.514;10.482;2023-05-18T09:39:06;16.80;99.90
23683;DHT22;24897;53.514;10.482;2023-05-18T09:41:55;17.00;99.90
23683;DHT22;24897;53.514;10.482;2023-05-18T09:44:40;17.20;99.90
23683;DHT22;24897;53.514;10.482;2023-05-18T09:47:26;17.40;99.90
23683;DHT22;24897;53.514;10.482;2023-05-18T09:50:11;16.70;99.90
23683;DHT22;24897;53.514;10.482;2023-05-18T09:52:55;15.90;99.90
23683;DHT22;24897;53.514;10.482;2023-05-18T09:55:47;16.10;99.90
23683;DHT22;24897;53.514;10.482;2023-05-18T09:58:32;16.70;99.90
23683;DHT22;24897;53.514;10.482;2023-05-18T10:01:17;17.20;99.90
23683;DHT22;24897;53.514;10.482;2023-05-18T10:04:03;17.30;99.90
23683;DHT22;24897;53.514;10.482;2023-05-18T10:06:48;17.60;99.90
23683;DHT22;24897;53.514;10.482;2023-05-18T10:09:33;17.70;99.90
23683;DHT22;24897;53.514;10.482;2023-05-18T10:12:17;18.10;99.90
23683;DHT22;24897;53.514;10.482;2023-05-18T10:15:08;18.40;99.90
23683;DHT22;24897;53.514;10.482;2023-05-18T10:17:55;18.40;99.90
23683;DHT22;24897;53.514;10.482;2023-05-18T10:20:40;18.10;99.90
23683;DHT22;24897;53.514;10.482;2023-05-18T10:23:26;18.00;99.90
23683;DHT22;24897;53.514;10.482;2023-05-18T10:26:11;17.80;99.90
23683;DHT22;24897;53.514;10.482;2023-05-18T10:28:58;18.10;99.90
23683;DHT22;24897;53.514;10.482;2023-05-18T10:31:43;18.50;99.90
23683;DHT22;24897;53.514;10.482;2023-05-18T10:34:32;18.70;99.90
23683;DHT22;24897;53.514;10.482;2023-05-18T10:37:16;19.00;99.90
23683;DHT22;24897;53.514;10.482;2023-05-18T10:40:02;18.60;99.90
23683;DHT22;24897;53.514;10.482;2023-05-18T10:42:48;18.60;99.90
23683;DHT22;24897;53.514;10.482;2023-05-18T10:45:34;18.60;99.90
23683;DHT22;24897;53.514;10.482;2023-05-18T10:48:21;18.60;99.90
23683;DHT22;24897;53.514;10.482;2023-05-18T10:51:06;18.70;99.90
23683;DHT22;24897;53.514;10.482;2023-05-18T10:53:52;19.20;99.90
23683;DHT22;24897;53.514;10.482;2023-05-18T10:56:37;19.10;99.90
23683;DHT22;24897;53.514;10.482;2023-05-18T10:59:22;19.50;99.90
23683;DHT22;24897;53.514;10.482;2023-05-18T11:02:09;19.50;99.90
23683;DHT22;24897;53.514;10.482;2023-05-18T11:04:53;19.40;99.90
23683;DHT22;24897;53.514;10.482;2023-05-18T11:07:44;19.00;99.90
23683;DHT22;24897;53.514;10.482;2023-05-18T11:10:38;18.90;99.90
23683;DHT22;24897;53.514;10.482;2023-05-18T11:13:28;18.90;99.90
23683;DHT22;24897;53.514;10.482;2023-05-18T11:16:14;18.70;99.90
23683;DHT22;24897;53.514;10.482;2023-05-18T11:19:04;18.20;99.90
23683;DHT22;24897;53.514;10.482;2023-05-18T11:21:51;18.20;99.90
23683;DHT22;24897;53.514;10.482;2023-05-18T11:24:39;18.30;99.90
23683;DHT22;24897;53.514;10.482;2023-05-18T11:27:24;18.40;99.90
23683;DHT22;24897;53.514;10.482;2023-05-18T11:30:45;18.50;99.90
23683;DHT22;24897;53.514;10.482;2023-05-18T11:33:29;18.90;99.90
23683;DHT22;24897;53.514;10.482;2023-05-18T11:36:14;18.70;99.90
23683;DHT22;24897;53.514;10.482;2023-05-18T11:39:05;18.20;99.90
23683;DHT22;24897;53.514;10.482;2023-05-18T11:42:02;18.00;99.90
23683;DHT22;24897;53.514;10.482;2023-05-18T11:44:52;17.80;99.90
23683;DHT22;24897;53.514;10.482;2023-05-18T11:47:39;18.00;99.90
23683;DHT22;24897;53.514;10.482;2023-05-18T11:50:23;18.50;99.90
23683;DHT22;24897;53.514;10.482;2023-05-18T11:53:08;18.70;99.90
23683;DHT22;24897;53.514;10.482;2023-05-18T11:55:58;18.40;99.90
23683;DHT22;24897;53.514;10.482;2023-05-18T11:58:42;18.20;99.90
23683;DHT22;24897;53.514;10.482;2023-05-18T12:01:28;17.70;99.90
23683;DHT22;24897;53.514;10.482;2023-05-18T12:04:13;17.50;99.90
23683;DHT22;24897;53.514;10.482;2023-05-18T12:06:59;17.50;99.90
23683;DHT22;24897;53.514;10.482;2023-05-18T12:09:47;18.10;99.90
23683;DHT22;24897;53.514;10.482;2023-05-18T12:12:32;18.20;99.90
23683;DHT22;24897;53.514;10.482;2023-05-18T12:15:21;18.30;99.90
23683;DHT22;24897;53.514;10.482;2023-05-18T12:18:05;18.50;99.90
23683;DHT22;24897;53.514;10.482;2023-05-18T12:20:49;18.10;99.90
23683;DHT22;24897;53.514;10.482;2023-05-18T12:23:37;18.00;99.90
23683;DHT22;24897;53.514;10.482;2023-05-18T12:26:25;18.30;99.90
23683;DHT22;24897;53.514;10.482;2023-05-18T12:29:12;18.40;99.90
23683;DHT22;24897;53.514;10.482;2023-05-18T12:32:10;18.00;99.90
23683;DHT22;24897;53.514;10.482;2023-05-18T12:34:55;17.80;99.90
23683;DHT22;24897;53.514;10.482;2023-05-18T12:37:43;17.90;99.90
23683;DHT22;24897;53.514;10.482;2023-05-18T12:40:34;18.10;99.90
23683;DHT22;24897;53.514;10.482;2023-05-18T12:43:35;18.00;99.90
23683;DHT22;24897;53.514;10.482;2023-05-18T12:46:20;18.00;99.90
23683;DHT22;24897;53.514;10.482;2023-05-18T12:49:07;17.80;99.90
23683;DHT22;24897;53.514;10.482;2023-05-18T12:51:54;18.10;99.90
23683;DHT22;24897;53.514;10.482;2023-05-18T12:54:53;18.10;99.90
23683;DHT22;24897;53.514;10.482;2023-05-18T12:57:44;18.00;99.90
23683;DHT22;24897;53.514;10.482;2023-05-18T13:00:33;18.10;99.90
23683;DHT22;24897;53.514;10.482;2023-05-18T13:03:19;17.80;99.90
23683;DHT22;24897;53.514;10.482;2023-05-18T13:06:06;17.50;99.90
23683;DHT22;24897;53.514;10.482;2023-05-18T13:08:54;17.20;99.90
23683;DHT22;24897;53.514;10.482;2023-05-18T13:11:39;17.40;99.90
23683;DHT22;24897;53.514;10.482;2023-05-18T13:14:23;17.80;99.90
23683;DHT22;24897;53.514;10.482;2023-05-18T13:17:07;18.10;99.90
23683;DHT22;24897;53.514;10.482;2023-05-18T13:19:56;18.50;99.90
23683;DHT22;24897;53.514;10.482;2023-05-18T13:22:41;18.50;99.90
23683;DHT22;24897;53.514;10.482;2023-05-18T13:25:25;18.00;99.90
23683;DHT22;24897;53.514;10.482;2023-05-18T13:28:11;18.00;99.90
23683;DHT22;24897;53.514;10.482;2023-05-18T13:30:56;18.30;99.90
23683;DHT22;24897;53.514;10.482;2023-05-18T13:33:41;18.40;99.90
23683;DHT22;24897;53.514;10.482;2023-05-18T13:36:25;18.40;99.90
23683;DHT22;24897;53.514;10.482;2023-05-18T13:39:12;18.70;99.90
23683;DHT22;24897;53.514;10.482;2023-05-18T13:41:56;18.90;99.90
23683;DHT22;24897;53.514;10.482;2023-05-18T13:44:42;19.10;99.90
23683;DHT22;24897;53.514;10.482;2023-05-18T13:47:26;18.90;99.90
23683;DHT22;24897;53.514;10.482;2023-05-18T13:50:10;18.40;99.90
23683;DHT22;24897;53.514;10.482;2023-05-18T13:52:55;18.00;99.90
23683;DHT22;24897;53.514;10.482;2023-05-18T13:55:39;18.10;99.90
23683;DHT22;24897;53.514;10.482;2023-05-18T13:58:24;18.50;99.90
23683;DHT22;24897;53.514;10.482;2023-05-18T14:01:08;18.60;99.90
23683;DHT22;24897;53.514;10.482;2023-05-18T14:03:53;18.60;99.90
23683;DHT22;24897;53.514;10.482;2023-05-18T14:06:37;18.40;99.90
23683;DHT22;24897;53.514;10.482;2023-05-18T14:09:21;18.20;99.90
23683;DHT22;24897;53.514;10.482;2023-05-18T14:12:06;17.90;99.90
23683;DHT22;24897;53.514;10.482;2023-05-18T14:14:50;17.50;99.90
23683;DHT22;24897;53.514;10.482;2023-05-18T14:17:34;17.70;99.90
23683;DHT22;24897;53.514;10.482;2023-05-18T14:20:19;17.80;99.90
23683;DHT22;24897;53.514;10.482;2023-05-18T14:23:03;17.70;99.90
23683;DHT22;24897;53.514;10.482;2023-05-18T14:25:48;17.90;99.90
23683;DHT22;24897;53.514;10.482;2023-05-18T14:28:32;18.00;99.90
23683;DHT22;24897;53.514;10.482;2023-05-18T14:31:16;18.20;99.90
23683;DHT22;24897;53.514;10.482;2023-05-18T14:34:01;18.00;99.90
23683;DHT22;24897;53.514;10.482;2023-05-18T14:36:45;17.70;99.90
23683;DHT22;24897;53.514;10.482;2023-05-18T14:39:30;17.80;99.90
23683;DHT22;24897;53.514;10.482;2023-05-18T14:42:14;17.80;99.90
23683;DHT22;24897;53.514;10.482;2023-05-18T14:44:58;17.70;99.90
23683;DHT22;24897;53.514;10.482;2023-05-18T14:47:42;17.80;99.90
23683;DHT22;24897;53.514;10.482;2023-05-18T14:50:26;17.50;99.90
23683;DHT22;24897;53.514;10.482;2023-05-18T14:53:11;17.20;99.90
23683;DHT22;24897;53.514;10.482;2023-05-18T14:55:55;17.50;99.90
23683;DHT22;24897;53.514;10.482;2023-05-18T14:58:39;17.70;99.90
23683;DHT22;24897;53.514;10.482;2023-05-18T15:01:23;17.70;99.90
23683;DHT22;24897;53.514;10.482;2023-05-18T15:04:07;17.50;99.90
23683;DHT22;24897;53.514;10.482;2023-05-18T15:06:52;17.50;99.90
23683;DHT22;24897;53.514;10.482;2023-05-18T15:09:36;17.60;99.90
23683;DHT22;24897;53.514;10.482;2023-05-18T15:12:20;17.60;99.90
23683;DHT22;24897;53.514;10.482;2023-05-18T15:15:06;17.60;99.90
23683;DHT22;24897;53.514;10.482;2023-05-18T15:17:51;17.80;99.90
23683;DHT22;24897;53.514;10.482;2023-05-18T15:20:34;17.30;99.90
23683;DHT22;24897;53.514;10.482;2023-05-18T15:23:18;17.20;99.90
23683;DHT22;24897;53.514;10.482;2023-05-18T15:26:03;17.30;99.90
23683;DHT22;24897;53.514;10.482;2023-05-18T15:28:47;17.40;99.90
23683;DHT22;24897;53.514;10.482;2023-05-18T15:31:32;17.40;99.90
23683;DHT22;24897;53.514;10.482;2023-05-18T15:34:16;17.40;99.90
23683;DHT22;24897;53.514;10.482;2023-05-18T15:37:00;17.30;99.90
23683;DHT22;24897;53.514;10.482;2023-05-18T15:39:45;17.20;99.90
23683;DHT22;24897;53.514;10.482;2023-05-18T15:42:29;17.10;99.90
23683;DHT22;24897;53.514;10.482;2023-05-18T15:45:14;16.90;99.90
23683;DHT22;24897;53.514;10.482;2023-05-18T15:47:58;16.60;99.90
23683;DHT22;24897;53.514;10.482;2023-05-18T15:50:42;16.70;99.90
23683;DHT22;24897;53.514;10.482;2023-05-18T15:53:26;16.90;99.90
23683;DHT22;24897;53.514;10.482;2023-05-18T15:56:11;16.80;99.90
23683;DHT22;24897;53.514;10.482;2023-05-18T15:58:55;17.00;99.90
23683;DHT22;24897;53.514;10.482;2023-05-18T16:01:39;17.20;99.90
23683;DHT22;24897;53.514;10.482;2023-05-18T16:04:23;17.30;99.90
23683;DHT22;24897;53.514;10.482;2023-05-18T16:07:07;17.00;99.90
23683;DHT22;24897;53.514;10.482;2023-05-18T16:09:52;17.10;99.90
23683;DHT22;24897;53.514;10.482;2023-05-18T16:12:36;16.90;99.90
23683;DHT22;24897;53.514;10.482;2023-05-18T16:15:24;16.80;99.90
23683;DHT22;24897;53.514;10.482;2023-05-18T16:18:08;16.90;99.90
23683;DHT22;24897;53.514;10.482;2023-05-18T16:20:53;16.90;99.90
23683;DHT22;24897;53.514;10.482;2023-05-18T16:23:38;16.90;99.90
23683;DHT22;24897;53.514;10.482;2023-05-18T16:26:22;16.80;99.90
23683;DHT22;24897;53.514;10.482;2023-05-18T16:29:07;16.80;99.90
23683;DHT22;24897;53.514;10.482;2023-05-18T16:31:51;16.70;99.90
23683;DHT22;24897;53.514;10.482;2023-05-18T16:34:35;16.70;99.90
23683;DHT22;24897;53.514;10.482;2023-05-18T16:37:19;16.70;99.90
23683;DHT22;24897;53.514;10.482;2023-05-18T16:40:04;16.60;99.90
23683;DHT22;24897;53.514;10.482;2023-05-18T16:42:49;16.40;99.90
23683;DHT22;24897;53.514;10.482;2023-05-18T16:45:33;16.40;99.90
23683;DHT22;24897;53.514;10.482;2023-05-18T16:48:17;16.50;99.90
23683;DHT22;24897;53.514;10.482;2023-05-18T16:51:02;16.40;99.90
23683;DHT22;24897;53.514;10.482;2023-05-18T16:53:49;16.30;99.90
23683;DHT22;24897;53.514;10.482;2023-05-18T16:56:35;16.20;99.90
23683;DHT22;24897;53.514;10.482;2023-05-18T16:59:19;16.10;99.90
23683;DHT22;24897;53.514;10.482;2023-05-18T17:02:05;16.10;99.90
23683;DHT22;24897;53.514;10.482;2023-05-18T17:04:51;16.00;99.90
23683;DHT22;24897;53.514;10.482;2023-05-18T17:07:36;16.00;99.90
23683;DHT22;24897;53.514;10.482;2023-05-18T17:10:21;15.90;99.90
23683;DHT22;24897;53.514;10.482;2023-05-18T17:13:06;15.90;99.90
23683;DHT22;24897;53.514;10.482;2023-05-18T17:15:50;15.90;99.90
23683;DHT22;24897;53.514;10.482;2023-05-18T17:18:35;15.90;99.90
23683;DHT22;24897;53.514;10.482;2023-05-18T17:21:19;15.90;99.90
23683;DHT22;24897;53.514;10.482;2023-05-18T17:24:04;15.90;99.90
23683;DHT22;24897;53.514;10.482;2023-05-18T17:26:48;15.90;99.90